sensor_id;sensor_type;location;lat;lon;timestamp;P1;durP1;ratioP1;P2;durP2;ratioP2
59006;SDS011;44792;52.760;6.726;2022-12-18T00:01:47;79.13;;;25.92;;
59006;SDS011;44792;52.760;6.726;2022-12-18T00:04:19;83.28;;;28.33;;
59006;SDS011;44792;52.760;6.726;2022-12-18T00:06:46;86.78;;;25.88;;
59006;SDS011;44792;52.760;6.726;2022-12-18T00:09:12;76.03;;;25.80;;
59006;SDS011;44792;52.760;6.726;2022-12-18T00:11:37;76.50;;;23.90;;
59006;SDS011;44792;52.760;6.726;2022-12-18T00:14:03;82.35;;;28.02;;
59006;SDS011;44792;52.760;6.726;2022-12-18T00:16:29;85.68;;;28.92;;
59006;SDS011;44792;52.760;6.726;2022-12-18T00:19:00;79.95;;;27.23;;
59006;SDS011;44792;52.760;6.726;2022-12-18T00:21:27;83.93;;;27.02;;
59006;SDS011;44792;52.760;6.726;2022-12-18T00:23:53;77.25;;;26.40;;
59006;SDS011;44792;52.760;6.726;2022-12-18T00:26:20;81.90;;;27.83;;
59006;SDS011;44792;52.760;6.726;2022-12-18T00:28:47;78.90;;;26.02;;
59006;SDS011;44792;52.760;6.726;2022-12-18T00:31:15;78.82;;;26.02;;
59006;SDS011;44792;52.760;6.726;2022-12-18T00:33:42;80.20;;;26.67;;
59006;SDS011;44792;52.760;6.726;2022-12-18T00:38:36;74.40;;;27.17;;
59006;SDS011;44792;52.760;6.726;2022-12-18T00:41:02;80.65;;;26.48;;
59006;SDS011;44792;52.760;6.726;2022-12-18T00:43:29;83.25;;;27.20;;
59006;SDS011;44792;52.760;6.726;2022-12-18T00:45:55;77.65;;;26.30;;
59006;SDS011;44792;52.760;6.726;2022-12-18T00:48:21;93.30;;;29.30;;
59006;SDS011;44792;52.760;6.726;2022-12-18T00:50:47;78.43;;;25.55;;
59006;SDS011;44792;52.760;6.726;2022-12-18T00:53:14;91.63;;;28.63;;
59006;SDS011;44792;52.760;6.726;2022-12-18T00:55:39;87.68;;;25.40;;
59006;SDS011;44792;52.760;6.726;2022-12-18T00:58:06;84.68;;;27.02;;
59006;SDS011;44792;52.760;6.726;2022-12-18T01:00:32;84.78;;;29.80;;
59006;SDS011;44792;52.760;6.726;2022-12-18T01:02:58;84.75;;;28.80;;
59006;SDS011;44792;52.760;6.726;2022-12-18T01:05:23;83.60;;;28.50;;
59006;SDS011;44792;52.760;6.726;2022-12-18T01:07:50;82.10;;;26.85;;
59006;SDS011;44792;52.760;6.726;2022-12-18T01:10:15;96.20;;;28.83;;
59006;SDS011;44792;52.760;6.726;2022-12-18T01:12:41;91.60;;;28.10;;
59006;SDS011;44792;52.760;6.726;2022-12-18T01:15:07;81.38;;;27.60;;
59006;SDS011;44792;52.760;6.726;2022-12-18T01:17:34;85.28;;;27.35;;
59006;SDS011;44792;52.760;6.726;2022-12-18T01:19:59;87.10;;;28.13;;
59006;SDS011;44792;52.760;6.726;2022-12-18T01:22:25;78.90;;;25.20;;
59006;SDS011;44792;52.760;6.726;2022-12-18T01:24:50;83.03;;;27.38;;
59006;SDS011;44792;52.760;6.726;2022-12-18T01:27:16;82.65;;;27.60;;
59006;SDS011;44792;52.760;6.726;2022-12-18T01:29:41;85.00;;;24.90;;
59006;SDS011;44792;52.760;6.726;2022-12-18T01:32:07;74.45;;;25.42;;
59006;SDS011;44792;52.760;6.726;2022-12-18T01:34:34;80.00;;;24.10;;
59006;SDS011;44792;52.760;6.726;2022-12-18T01:37:02;85.47;;;25.52;;
59006;SDS011;44792;52.760;6.726;2022-12-18T01:39:28;83.43;;;26.58;;
59006;SDS011;44792;52.760;6.726;2022-12-18T01:41:54;69.68;;;26.38;;
59006;SDS011;44792;52.760;6.726;2022-12-18T01:47:15;77.72;;;24.88;;
59006;SDS011;44792;52.760;6.726;2022-12-18T01:52:54;73.40;;;27.27;;
59006;SDS011;44792;52.760;6.726;2022-12-18T01:55:25;80.18;;;27.08;;
59006;SDS011;44792;52.760;6.726;2022-12-18T01:57:54;79.88;;;25.13;;
59006;SDS011;44792;52.760;6.726;2022-12-18T02:00:21;79.47;;;24.35;;
59006;SDS011;44792;52.760;6.726;2022-12-18T02:02:48;68.63;;;23.60;;
59006;SDS011;44792;52.760;6.726;2022-12-18T02:05:37;71.43;;;23.95;;
59006;SDS011;44792;52.760;6.726;2022-12-18T02:08:20;63.92;;;22.80;;
59006;SDS011;44792;52.760;6.726;2022-12-18T02:18:50;63.65;;;23.88;;
59006;SDS011;44792;52.760;6.726;2022-12-18T02:24:13;75.85;;;25.50;;
59006;SDS011;44792;52.760;6.726;2022-12-18T02:26:59;82.55;;;25.90;;
59006;SDS011;44792;52.760;6.726;2022-12-18T02:29:37;85.95;;;29.70;;
59006;SDS011;44792;52.760;6.726;2022-12-18T02:32:12;76.65;;;24.00;;
59006;SDS011;44792;52.760;6.726;2022-12-18T02:34:41;67.45;;;23.40;;
59006;SDS011;44792;52.760;6.726;2022-12-18T02:37:10;83.13;;;24.88;;
59006;SDS011;44792;52.760;6.726;2022-12-18T02:39:39;70.90;;;25.30;;
59006;SDS011;44792;52.760;6.726;2022-12-18T02:42:07;77.93;;;24.48;;
59006;SDS011;44792;52.760;6.726;2022-12-18T02:44:34;71.93;;;25.92;;
59006;SDS011;44792;52.760;6.726;2022-12-18T02:49:36;69.97;;;21.98;;
59006;SDS011;44792;52.760;6.726;2022-12-18T02:55:04;72.10;;;24.83;;
59006;SDS011;44792;52.760;6.726;2022-12-18T02:57:34;69.28;;;23.77;;
59006;SDS011;44792;52.760;6.726;2022-12-18T03:02:35;66.93;;;23.63;;
59006;SDS011;44792;52.760;6.726;2022-12-18T03:08:12;67.45;;;24.05;;
59006;SDS011;44792;52.760;6.726;2022-12-18T03:10:56;66.18;;;22.75;;
59006;SDS011;44792;52.760;6.726;2022-12-18T03:13:27;70.53;;;22.60;;
59006;SDS011;44792;52.760;6.726;2022-12-18T03:15:58;59.80;;;22.05;;
59006;SDS011;44792;52.760;6.726;2022-12-18T03:18:30;67.72;;;20.75;;
59006;SDS011;44792;52.760;6.726;2022-12-18T03:21:00;61.50;;;21.98;;
59006;SDS011;44792;52.760;6.726;2022-12-18T03:23:32;64.35;;;23.42;;
59006;SDS011;44792;52.760;6.726;2022-12-18T03:26:03;58.63;;;19.90;;
59006;SDS011;44792;52.760;6.726;2022-12-18T03:28:35;63.60;;;22.33;;
59006;SDS011;44792;52.760;6.726;2022-12-18T03:31:04;60.50;;;20.88;;
59006;SDS011;44792;52.760;6.726;2022-12-18T03:33:53;50.42;;;19.80;;
59006;SDS011;44792;52.760;6.726;2022-12-18T03:36:22;54.35;;;17.67;;
59006;SDS011;44792;52.760;6.726;2022-12-18T03:38:48;63.72;;;22.35;;
59006;SDS011;44792;52.760;6.726;2022-12-18T03:46:45;57.10;;;20.55;;
59006;SDS011;44792;52.760;6.726;2022-12-18T03:49:23;56.55;;;20.30;;
59006;SDS011;44792;52.760;6.726;2022-12-18T03:51:57;54.42;;;19.60;;
59006;SDS011;44792;52.760;6.726;2022-12-18T03:54:26;56.33;;;18.80;;
59006;SDS011;44792;52.760;6.726;2022-12-18T03:57:01;52.92;;;20.63;;
59006;SDS011;44792;52.760;6.726;2022-12-18T03:59:34;55.97;;;20.15;;
59006;SDS011;44792;52.760;6.726;2022-12-18T04:02:02;56.13;;;21.88;;
59006;SDS011;44792;52.760;6.726;2022-12-18T04:04:30;52.97;;;18.55;;
59006;SDS011;44792;52.760;6.726;2022-12-18T04:06:56;49.05;;;18.80;;
59006;SDS011;44792;52.760;6.726;2022-12-18T04:09:23;46.35;;;16.88;;
59006;SDS011;44792;52.760;6.726;2022-12-18T04:11:50;48.60;;;18.88;;
59006;SDS011;44792;52.760;6.726;2022-12-18T04:14:16;43.40;;;16.92;;
59006;SDS011;44792;52.760;6.726;2022-12-18T04:16:42;46.47;;;16.98;;
59006;SDS011;44792;52.760;6.726;2022-12-18T04:19:07;47.05;;;19.95;;
59006;SDS011;44792;52.760;6.726;2022-12-18T04:21:33;47.83;;;18.08;;
59006;SDS011;44792;52.760;6.726;2022-12-18T04:23:58;41.72;;;17.02;;
59006;SDS011;44792;52.760;6.726;2022-12-18T04:26:24;51.72;;;17.48;;
59006;SDS011;44792;52.760;6.726;2022-12-18T04:28:50;45.42;;;17.27;;
59006;SDS011;44792;52.760;6.726;2022-12-18T04:31:15;39.88;;;15.68;;
59006;SDS011;44792;52.760;6.726;2022-12-18T04:33:41;48.80;;;16.67;;
59006;SDS011;44792;52.760;6.726;2022-12-18T04:36:06;53.65;;;17.73;;
59006;SDS011;44792;52.760;6.726;2022-12-18T04:38:32;47.58;;;16.17;;
59006;SDS011;44792;52.760;6.726;2022-12-18T04:40:58;38.38;;;16.92;;
59006;SDS011;44792;52.760;6.726;2022-12-18T04:43:23;48.97;;;16.60;;
59006;SDS011;44792;52.760;6.726;2022-12-18T04:45:49;52.08;;;18.15;;
59006;SDS011;44792;52.760;6.726;2022-12-18T04:48:14;44.65;;;16.52;;
59006;SDS011;44792;52.760;6.726;2022-12-18T04:50:40;41.47;;;18.13;;
59006;SDS011;44792;52.760;6.726;2022-12-18T04:53:05;40.75;;;15.73;;
59006;SDS011;44792;52.760;6.726;2022-12-18T04:55:31;46.40;;;18.02;;
59006;SDS011;44792;52.760;6.726;2022-12-18T04:57:56;46.05;;;19.08;;
59006;SDS011;44792;52.760;6.726;2022-12-18T05:00:22;42.85;;;16.70;;
59006;SDS011;44792;52.760;6.726;2022-12-18T05:02:48;43.03;;;16.85;;
59006;SDS011;44792;52.760;6.726;2022-12-18T05:05:13;40.40;;;16.50;;
59006;SDS011;44792;52.760;6.726;2022-12-18T05:07:39;42.33;;;16.25;;
59006;SDS011;44792;52.760;6.726;2022-12-18T05:10:05;42.55;;;15.98;;
59006;SDS011;44792;52.760;6.726;2022-12-18T05:12:31;36.50;;;15.68;;
59006;SDS011;44792;52.760;6.726;2022-12-18T05:14:56;34.45;;;14.52;;
59006;SDS011;44792;52.760;6.726;2022-12-18T05:17:22;35.47;;;15.05;;
59006;SDS011;44792;52.760;6.726;2022-12-18T05:19:47;39.13;;;15.77;;
59006;SDS011;44792;52.760;6.726;2022-12-18T05:22:13;37.53;;;13.75;;
59006;SDS011;44792;52.760;6.726;2022-12-18T05:24:39;33.83;;;15.05;;
59006;SDS011;44792;52.760;6.726;2022-12-18T05:27:04;38.47;;;15.38;;
59006;SDS011;44792;52.760;6.726;2022-12-18T05:29:30;40.05;;;15.95;;
59006;SDS011;44792;52.760;6.726;2022-12-18T05:31:55;35.00;;;16.27;;
59006;SDS011;44792;52.760;6.726;2022-12-18T05:34:21;39.38;;;15.02;;
59006;SDS011;44792;52.760;6.726;2022-12-18T05:36:46;31.15;;;14.25;;
59006;SDS011;44792;52.760;6.726;2022-12-18T05:39:12;31.58;;;15.00;;
59006;SDS011;44792;52.760;6.726;2022-12-18T05:41:37;38.22;;;14.57;;
59006;SDS011;44792;52.760;6.726;2022-12-18T05:44:03;40.20;;;16.05;;
59006;SDS011;44792;52.760;6.726;2022-12-18T05:46:29;40.53;;;15.27;;
59006;SDS011;44792;52.760;6.726;2022-12-18T05:48:54;35.63;;;14.25;;
59006;SDS011;44792;52.760;6.726;2022-12-18T05:51:20;43.60;;;16.23;;
59006;SDS011;44792;52.760;6.726;2022-12-18T05:53:47;41.55;;;15.52;;
59006;SDS011;44792;52.760;6.726;2022-12-18T05:56:17;33.65;;;14.20;;
59006;SDS011;44792;52.760;6.726;2022-12-18T05:58:44;37.03;;;14.85;;
59006;SDS011;44792;52.760;6.726;2022-12-18T06:01:11;36.17;;;15.02;;
59006;SDS011;44792;52.760;6.726;2022-12-18T06:03:49;36.40;;;15.55;;
59006;SDS011;44792;52.760;6.726;2022-12-18T06:06:32;39.38;;;15.55;;
59006;SDS011;44792;52.760;6.726;2022-12-18T06:08:58;32.92;;;14.00;;
59006;SDS011;44792;52.760;6.726;2022-12-18T06:11:24;31.50;;;13.75;;
59006;SDS011;44792;52.760;6.726;2022-12-18T06:13:51;36.10;;;15.23;;
59006;SDS011;44792;52.760;6.726;2022-12-18T06:16:18;32.20;;;14.70;;
59006;SDS011;44792;52.760;6.726;2022-12-18T06:18:44;33.17;;;14.57;;
59006;SDS011;44792;52.760;6.726;2022-12-18T06:21:10;30.73;;;15.27;;
59006;SDS011;44792;52.760;6.726;2022-12-18T06:23:35;32.90;;;13.77;;
59006;SDS011;44792;52.760;6.726;2022-12-18T06:26:11;36.38;;;13.25;;
59006;SDS011;44792;52.760;6.726;2022-12-18T06:28:38;31.42;;;12.43;;
59006;SDS011;44792;52.760;6.726;2022-12-18T06:31:04;35.38;;;14.45;;
59006;SDS011;44792;52.760;6.726;2022-12-18T06:33:30;29.35;;;13.23;;
59006;SDS011;44792;52.760;6.726;2022-12-18T06:35:59;33.60;;;14.35;;
59006;SDS011;44792;52.760;6.726;2022-12-18T06:38:30;28.92;;;13.75;;
59006;SDS011;44792;52.760;6.726;2022-12-18T06:40:57;33.55;;;14.88;;
59006;SDS011;44792;52.760;6.726;2022-12-18T06:43:22;40.47;;;14.40;;
59006;SDS011;44792;52.760;6.726;2022-12-18T06:45:48;37.72;;;14.07;;
59006;SDS011;44792;52.760;6.726;2022-12-18T06:48:20;34.50;;;14.88;;
59006;SDS011;44792;52.760;6.726;2022-12-18T06:50:47;35.63;;;14.68;;
59006;SDS011;44792;52.760;6.726;2022-12-18T06:53:13;38.17;;;14.25;;
59006;SDS011;44792;52.760;6.726;2022-12-18T06:55:39;27.95;;;13.75;;
59006;SDS011;44792;52.760;6.726;2022-12-18T06:58:04;37.55;;;13.52;;
59006;SDS011;44792;52.760;6.726;2022-12-18T07:00:30;30.17;;;12.77;;
59006;SDS011;44792;52.760;6.726;2022-12-18T07:02:55;29.58;;;14.38;;
59006;SDS011;44792;52.760;6.726;2022-12-18T07:05:21;31.90;;;15.05;;
59006;SDS011;44792;52.760;6.726;2022-12-18T07:07:46;36.13;;;15.65;;
59006;SDS011;44792;52.760;6.726;2022-12-18T07:10:12;31.80;;;14.60;;
59006;SDS011;44792;52.760;6.726;2022-12-18T07:12:37;33.75;;;12.82;;
59006;SDS011;44792;52.760;6.726;2022-12-18T07:15:03;28.23;;;12.60;;
59006;SDS011;44792;52.760;6.726;2022-12-18T07:17:29;33.38;;;12.98;;
59006;SDS011;44792;52.760;6.726;2022-12-18T07:19:55;27.15;;;12.10;;
59006;SDS011;44792;52.760;6.726;2022-12-18T07:22:20;29.42;;;13.02;;
59006;SDS011;44792;52.760;6.726;2022-12-18T07:24:46;29.23;;;12.75;;
59006;SDS011;44792;52.760;6.726;2022-12-18T07:27:12;29.00;;;13.73;;
59006;SDS011;44792;52.760;6.726;2022-12-18T07:29:37;30.40;;;13.00;;
59006;SDS011;44792;52.760;6.726;2022-12-18T07:32:03;31.17;;;12.23;;
59006;SDS011;44792;52.760;6.726;2022-12-18T07:34:28;23.30;;;12.18;;
59006;SDS011;44792;52.760;6.726;2022-12-18T07:36:54;28.85;;;13.00;;
59006;SDS011;44792;52.760;6.726;2022-12-18T07:39:20;27.40;;;12.48;;
59006;SDS011;44792;52.760;6.726;2022-12-18T07:41:45;28.40;;;12.73;;
59006;SDS011;44792;52.760;6.726;2022-12-18T07:44:31;22.27;;;13.45;;
59006;SDS011;44792;52.760;6.726;2022-12-18T07:46:56;22.90;;;11.57;;
59006;SDS011;44792;52.760;6.726;2022-12-18T07:49:22;23.67;;;11.93;;
59006;SDS011;44792;52.760;6.726;2022-12-18T07:51:47;23.15;;;11.80;;
59006;SDS011;44792;52.760;6.726;2022-12-18T07:54:14;26.00;;;11.38;;
59006;SDS011;44792;52.760;6.726;2022-12-18T07:56:39;20.08;;;12.90;;
59006;SDS011;44792;52.760;6.726;2022-12-18T07:59:05;26.17;;;11.80;;
59006;SDS011;44792;52.760;6.726;2022-12-18T08:01:32;23.92;;;11.43;;
59006;SDS011;44792;52.760;6.726;2022-12-18T08:03:59;27.65;;;11.80;;
59006;SDS011;44792;52.760;6.726;2022-12-18T08:06:24;21.90;;;10.80;;
59006;SDS011;44792;52.760;6.726;2022-12-18T08:08:51;20.30;;;9.82;;
59006;SDS011;44792;52.760;6.726;2022-12-18T08:11:18;25.15;;;11.45;;
59006;SDS011;44792;52.760;6.726;2022-12-18T08:13:43;23.48;;;11.90;;
59006;SDS011;44792;52.760;6.726;2022-12-18T08:16:09;21.00;;;10.52;;
59006;SDS011;44792;52.760;6.726;2022-12-18T08:18:35;21.95;;;10.70;;
59006;SDS011;44792;52.760;6.726;2022-12-18T08:21:11;22.75;;;11.63;;
59006;SDS011;44792;52.760;6.726;2022-12-18T08:23:38;23.13;;;11.68;;
59006;SDS011;44792;52.760;6.726;2022-12-18T08:26:04;28.70;;;12.02;;
59006;SDS011;44792;52.760;6.726;2022-12-18T08:28:30;30.33;;;11.43;;
59006;SDS011;44792;52.760;6.726;2022-12-18T08:30:56;25.10;;;11.52;;
59006;SDS011;44792;52.760;6.726;2022-12-18T08:33:21;26.92;;;10.75;;
59006;SDS011;44792;52.760;6.726;2022-12-18T08:35:47;25.50;;;11.15;;
59006;SDS011;44792;52.760;6.726;2022-12-18T08:38:13;27.67;;;11.73;;
59006;SDS011;44792;52.760;6.726;2022-12-18T08:40:38;19.42;;;9.80;;
59006;SDS011;44792;52.760;6.726;2022-12-18T08:43:04;23.77;;;10.75;;
59006;SDS011;44792;52.760;6.726;2022-12-18T08:45:48;27.38;;;12.07;;
59006;SDS011;44792;52.760;6.726;2022-12-18T08:48:14;19.90;;;11.27;;
59006;SDS011;44792;52.760;6.726;2022-12-18T08:50:40;22.88;;;12.35;;
59006;SDS011;44792;52.760;6.726;2022-12-18T08:53:05;27.02;;;11.52;;
59006;SDS011;44792;52.760;6.726;2022-12-18T08:55:31;26.20;;;10.55;;
59006;SDS011;44792;52.760;6.726;2022-12-18T08:57:57;22.85;;;11.57;;
59006;SDS011;44792;52.760;6.726;2022-12-18T09:00:22;21.20;;;11.18;;
59006;SDS011;44792;52.760;6.726;2022-12-18T09:02:48;26.55;;;10.77;;
59006;SDS011;44792;52.760;6.726;2022-12-18T09:05:13;25.08;;;10.93;;
59006;SDS011;44792;52.760;6.726;2022-12-18T09:07:39;20.70;;;10.65;;
59006;SDS011;44792;52.760;6.726;2022-12-18T09:10:05;20.52;;;10.05;;
59006;SDS011;44792;52.760;6.726;2022-12-18T09:12:31;19.13;;;10.55;;
59006;SDS011;44792;52.760;6.726;2022-12-18T09:14:57;19.05;;;10.77;;
59006;SDS011;44792;52.760;6.726;2022-12-18T09:17:22;22.15;;;11.25;;
59006;SDS011;44792;52.760;6.726;2022-12-18T09:19:48;16.00;;;8.90;;
59006;SDS011;44792;52.760;6.726;2022-12-18T09:22:14;18.33;;;8.85;;
59006;SDS011;44792;52.760;6.726;2022-12-18T09:24:39;15.93;;;9.23;;
59006;SDS011;44792;52.760;6.726;2022-12-18T09:27:05;22.13;;;9.38;;
59006;SDS011;44792;52.760;6.726;2022-12-18T09:29:31;16.70;;;9.15;;
59006;SDS011;44792;52.760;6.726;2022-12-18T09:31:57;15.45;;;9.60;;
59006;SDS011;44792;52.760;6.726;2022-12-18T09:34:23;17.02;;;8.80;;
59006;SDS011;44792;52.760;6.726;2022-12-18T09:36:48;16.00;;;8.45;;
59006;SDS011;44792;52.760;6.726;2022-12-18T09:39:14;20.15;;;9.52;;
59006;SDS011;44792;52.760;6.726;2022-12-18T09:44:13;16.20;;;8.90;;
59006;SDS011;44792;52.760;6.726;2022-12-18T09:46:51;14.23;;;7.88;;
59006;SDS011;44792;52.760;6.726;2022-12-18T09:49:26;14.00;;;8.40;;
59006;SDS011;44792;52.760;6.726;2022-12-18T09:51:57;15.05;;;8.23;;
59006;SDS011;44792;52.760;6.726;2022-12-18T09:54:50;15.13;;;8.32;;
59006;SDS011;44792;52.760;6.726;2022-12-18T09:57:23;13.93;;;8.50;;
59006;SDS011;44792;52.760;6.726;2022-12-18T09:59:54;15.57;;;8.20;;
59006;SDS011;44792;52.760;6.726;2022-12-18T10:02:24;12.15;;;6.45;;
59006;SDS011;44792;52.760;6.726;2022-12-18T10:07:34;17.13;;;7.47;;
59006;SDS011;44792;52.760;6.726;2022-12-18T10:10:23;11.90;;;7.60;;
59006;SDS011;44792;52.760;6.726;2022-12-18T10:15:38;13.80;;;7.40;;
59006;SDS011;44792;52.760;6.726;2022-12-18T10:21:10;10.05;;;6.10;;
59006;SDS011;44792;52.760;6.726;2022-12-18T10:23:50;14.88;;;6.85;;
59006;SDS011;44792;52.760;6.726;2022-12-18T10:26:38;11.38;;;6.82;;
59006;SDS011;44792;52.760;6.726;2022-12-18T10:29:09;12.45;;;6.28;;
59006;SDS011;44792;52.760;6.726;2022-12-18T10:31:37;10.70;;;6.07;;
59006;SDS011;44792;52.760;6.726;2022-12-18T10:34:02;10.18;;;6.75;;
59006;SDS011;44792;52.760;6.726;2022-12-18T10:36:28;11.13;;;5.65;;
59006;SDS011;44792;52.760;6.726;2022-12-18T10:38:58;8.85;;;5.88;;
59006;SDS011;44792;52.760;6.726;2022-12-18T10:41:40;11.05;;;5.75;;
59006;SDS011;44792;52.760;6.726;2022-12-18T10:44:10;9.60;;;5.30;;
59006;SDS011;44792;52.760;6.726;2022-12-18T10:46:41;10.07;;;5.32;;
59006;SDS011;44792;52.760;6.726;2022-12-18T10:49:07;10.18;;;5.68;;
59006;SDS011;44792;52.760;6.726;2022-12-18T10:51:47;11.07;;;6.10;;
59006;SDS011;44792;52.760;6.726;2022-12-18T10:56:49;9.85;;;5.38;;
59006;SDS011;44792;52.760;6.726;2022-12-18T10:59:15;9.13;;;5.15;;
59006;SDS011;44792;52.760;6.726;2022-12-18T11:01:52;7.25;;;4.80;;
59006;SDS011;44792;52.760;6.726;2022-12-18T11:04:24;11.48;;;4.80;;
59006;SDS011;44792;52.760;6.726;2022-12-18T11:06:53;10.20;;;5.47;;
59006;SDS011;44792;52.760;6.726;2022-12-18T11:09:33;8.38;;;5.35;;
59006;SDS011;44792;52.760;6.726;2022-12-18T11:12:01;8.55;;;4.50;;
59006;SDS011;44792;52.760;6.726;2022-12-18T11:14:32;9.10;;;5.68;;
59006;SDS011;44792;52.760;6.726;2022-12-18T11:17:16;6.45;;;3.95;;
59006;SDS011;44792;52.760;6.726;2022-12-18T11:19:44;7.90;;;5.13;;
59006;SDS011;44792;52.760;6.726;2022-12-18T11:22:23;6.45;;;3.83;;
59006;SDS011;44792;52.760;6.726;2022-12-18T11:24:53;7.80;;;4.43;;
59006;SDS011;44792;52.760;6.726;2022-12-18T11:27:22;8.20;;;4.05;;
59006;SDS011;44792;52.760;6.726;2022-12-18T11:29:49;7.47;;;5.18;;
59006;SDS011;44792;52.760;6.726;2022-12-18T11:35:11;6.05;;;4.35;;
59006;SDS011;44792;52.760;6.726;2022-12-18T11:37:47;8.10;;;3.72;;
59006;SDS011;44792;52.760;6.726;2022-12-18T11:40:19;9.40;;;4.32;;
59006;SDS011;44792;52.760;6.726;2022-12-18T11:45:48;8.85;;;4.85;;
59006;SDS011;44792;52.760;6.726;2022-12-18T11:48:47;5.90;;;4.85;;
59006;SDS011;44792;52.760;6.726;2022-12-18T11:51:22;10.65;;;4.60;;
59006;SDS011;44792;52.760;6.726;2022-12-18T11:53:53;8.27;;;4.78;;
59006;SDS011;44792;52.760;6.726;2022-12-18T11:56:26;6.78;;;4.60;;
59006;SDS011;44792;52.760;6.726;2022-12-18T12:01:46;9.95;;;5.03;;
59006;SDS011;44792;52.760;6.726;2022-12-18T12:04:24;8.32;;;4.22;;
59006;SDS011;44792;52.760;6.726;2022-12-18T12:12:44;10.77;;;3.88;;
59006;SDS011;44792;52.760;6.726;2022-12-18T12:15:44;12.68;;;5.03;;
59006;SDS011;44792;52.760;6.726;2022-12-18T12:21:13;6.82;;;4.55;;
59006;SDS011;44792;52.760;6.726;2022-12-18T12:26:48;7.82;;;4.10;;
59006;SDS011;44792;52.760;6.726;2022-12-18T12:34:55;6.38;;;4.30;;
59006;SDS011;44792;52.760;6.726;2022-12-18T12:40:26;8.20;;;4.72;;
59006;SDS011;44792;52.760;6.726;2022-12-18T12:42:55;7.05;;;4.22;;
59006;SDS011;44792;52.760;6.726;2022-12-18T12:45:44;7.38;;;4.22;;
59006;SDS011;44792;52.760;6.726;2022-12-18T12:53:48;8.02;;;5.20;;
59006;SDS011;44792;52.760;6.726;2022-12-18T12:56:14;9.52;;;5.28;;
59006;SDS011;44792;52.760;6.726;2022-12-18T12:58:45;8.52;;;4.60;;
59006;SDS011;44792;52.760;6.726;2022-12-18T13:06:58;9.00;;;4.75;;
59006;SDS011;44792;52.760;6.726;2022-12-18T13:09:32;6.95;;;5.00;;
59006;SDS011;44792;52.760;6.726;2022-12-18T13:12:07;9.90;;;5.25;;
59006;SDS011;44792;52.760;6.726;2022-12-18T13:14:58;10.40;;;5.30;;
59006;SDS011;44792;52.760;6.726;2022-12-18T13:17:47;10.63;;;5.43;;
59006;SDS011;44792;52.760;6.726;2022-12-18T13:20:13;9.23;;;4.85;;
59006;SDS011;44792;52.760;6.726;2022-12-18T13:22:42;9.73;;;5.00;;
59006;SDS011;44792;52.760;6.726;2022-12-18T13:35:39;10.93;;;5.78;;
59006;SDS011;44792;52.760;6.726;2022-12-18T13:45:45;12.70;;;5.72;;
59006;SDS011;44792;52.760;6.726;2022-12-18T13:48:22;10.35;;;6.05;;
59006;SDS011;44792;52.760;6.726;2022-12-18T13:50:55;10.85;;;5.15;;
59006;SDS011;44792;52.760;6.726;2022-12-18T13:53:28;11.05;;;6.53;;
59006;SDS011;44792;52.760;6.726;2022-12-18T13:55:58;10.75;;;5.07;;
59006;SDS011;44792;52.760;6.726;2022-12-18T13:58:24;9.40;;;5.85;;
59006;SDS011;44792;52.760;6.726;2022-12-18T14:00:49;10.18;;;5.45;;
59006;SDS011;44792;52.760;6.726;2022-12-18T14:03:19;11.88;;;6.38;;
59006;SDS011;44792;52.760;6.726;2022-12-18T14:05:54;9.52;;;6.75;;
59006;SDS011;44792;52.760;6.726;2022-12-18T14:08:27;16.42;;;6.55;;
59006;SDS011;44792;52.760;6.726;2022-12-18T14:10:59;10.80;;;6.32;;
59006;SDS011;44792;52.760;6.726;2022-12-18T14:15:54;12.20;;;6.50;;
59006;SDS011;44792;52.760;6.726;2022-12-18T14:20:51;11.77;;;6.45;;
59006;SDS011;44792;52.760;6.726;2022-12-18T14:23:28;12.18;;;6.43;;
59006;SDS011;44792;52.760;6.726;2022-12-18T14:25:54;13.75;;;6.53;;
59006;SDS011;44792;52.760;6.726;2022-12-18T14:28:20;14.32;;;7.18;;
59006;SDS011;44792;52.760;6.726;2022-12-18T14:30:47;10.80;;;6.32;;
59006;SDS011;44792;52.760;6.726;2022-12-18T14:33:14;12.73;;;6.80;;
59006;SDS011;44792;52.760;6.726;2022-12-18T14:35:42;14.88;;;7.95;;
59006;SDS011;44792;52.760;6.726;2022-12-18T14:40:47;14.20;;;6.72;;
59006;SDS011;44792;52.760;6.726;2022-12-18T14:43:19;12.00;;;7.10;;
59006;SDS011;44792;52.760;6.726;2022-12-18T14:45:45;11.07;;;6.88;;
59006;SDS011;44792;52.760;6.726;2022-12-18T14:48:14;11.68;;;7.50;;
59006;SDS011;44792;52.760;6.726;2022-12-18T14:50:40;12.45;;;7.50;;
59006;SDS011;44792;52.760;6.726;2022-12-18T14:53:15;13.25;;;6.85;;
59006;SDS011;44792;52.760;6.726;2022-12-18T14:55:47;12.07;;;7.00;;
59006;SDS011;44792;52.760;6.726;2022-12-18T14:58:14;14.90;;;7.15;;
59006;SDS011;44792;52.760;6.726;2022-12-18T15:00:42;11.68;;;7.75;;
59006;SDS011;44792;52.760;6.726;2022-12-18T15:03:07;12.32;;;7.05;;
59006;SDS011;44792;52.760;6.726;2022-12-18T15:05:34;11.38;;;6.78;;
59006;SDS011;44792;52.760;6.726;2022-12-18T15:08:00;12.52;;;7.82;;
59006;SDS011;44792;52.760;6.726;2022-12-18T15:10:31;14.73;;;7.95;;
59006;SDS011;44792;52.760;6.726;2022-12-18T15:18:11;16.48;;;7.10;;
59006;SDS011;44792;52.760;6.726;2022-12-18T15:20:45;15.15;;;8.20;;
59006;SDS011;44792;52.760;6.726;2022-12-18T15:25:56;13.02;;;7.60;;
59006;SDS011;44792;52.760;6.726;2022-12-18T15:28:32;13.20;;;7.10;;
59006;SDS011;44792;52.760;6.726;2022-12-18T15:33:32;13.40;;;8.15;;
59006;SDS011;44792;52.760;6.726;2022-12-18T15:36:00;14.85;;;7.43;;
59006;SDS011;44792;52.760;6.726;2022-12-18T15:38:27;13.77;;;7.63;;
59006;SDS011;44792;52.760;6.726;2022-12-18T15:40:53;17.20;;;7.97;;
59006;SDS011;44792;52.760;6.726;2022-12-18T15:43:23;14.82;;;8.05;;
59006;SDS011;44792;52.760;6.726;2022-12-18T15:45:59;13.95;;;8.13;;
59006;SDS011;44792;52.760;6.726;2022-12-18T15:48:36;14.75;;;8.07;;
59006;SDS011;44792;52.760;6.726;2022-12-18T15:51:08;12.98;;;7.50;;
59006;SDS011;44792;52.760;6.726;2022-12-18T15:53:45;16.38;;;8.05;;
59006;SDS011;44792;52.760;6.726;2022-12-18T15:56:13;15.45;;;8.18;;
59006;SDS011;44792;52.760;6.726;2022-12-18T15:58:59;16.65;;;7.95;;
59006;SDS011;44792;52.760;6.726;2022-12-18T16:01:26;11.98;;;8.30;;
59006;SDS011;44792;52.760;6.726;2022-12-18T16:03:53;14.77;;;9.18;;
59006;SDS011;44792;52.760;6.726;2022-12-18T16:06:20;13.93;;;9.00;;
59006;SDS011;44792;52.760;6.726;2022-12-18T16:08:46;15.10;;;7.50;;
59006;SDS011;44792;52.760;6.726;2022-12-18T16:11:22;17.52;;;7.72;;
59006;SDS011;44792;52.760;6.726;2022-12-18T16:16:47;12.70;;;7.60;;
59006;SDS011;44792;52.760;6.726;2022-12-18T16:19:14;17.52;;;8.32;;
59006;SDS011;44792;52.760;6.726;2022-12-18T16:21:41;14.98;;;7.85;;
59006;SDS011;44792;52.760;6.726;2022-12-18T16:24:26;17.83;;;8.93;;
59006;SDS011;44792;52.760;6.726;2022-12-18T16:26:53;16.77;;;8.35;;
59006;SDS011;44792;52.760;6.726;2022-12-18T16:29:23;15.93;;;8.93;;
59006;SDS011;44792;52.760;6.726;2022-12-18T16:31:52;17.20;;;8.60;;
59006;SDS011;44792;52.760;6.726;2022-12-18T16:36:57;12.70;;;7.85;;
59006;SDS011;44792;52.760;6.726;2022-12-18T16:39:24;17.67;;;8.93;;
59006;SDS011;44792;52.760;6.726;2022-12-18T16:41:51;15.18;;;8.20;;
59006;SDS011;44792;52.760;6.726;2022-12-18T16:44:17;14.77;;;7.90;;
59006;SDS011;44792;52.760;6.726;2022-12-18T16:46:42;13.35;;;7.30;;
59006;SDS011;44792;52.760;6.726;2022-12-18T16:49:10;10.57;;;7.07;;
59006;SDS011;44792;52.760;6.726;2022-12-18T16:51:37;13.43;;;8.23;;